»·PEaware :: SKY410 KHII-KPSP

SKY410 :: KHII-KPSP

FLIGHT INFORMATION

Flight Status: Arrived
Operator:
Sky High Charters
More flights by this operator :: More flights under this callsign
Pilot: Timothy L. (20714)
Aircraft: PIPER PA-46-310/350P MALIBU MIRAGE
(PA46)
More flights by this aircraft type
Origin: KHII Lake Havasu City
United States
Destination: KPSP Palm Springs Intl
United States
More flights between these airports :: More routes between these airports
Route: +EED CLOWD1
File this flight plan on PilotEdge
Remarks: SKY8 LEG2
Altitude:
(Current/Filed)
11,000ft
Speed:
(Current/Filed)
170kts
Departed: 01-Dec-19 05:59 PM
Arrived: 01-Dec-19 07:07 PM
Distance/Time
Traveled:
116nm/1:08
Distance/Time
To Go:
Arrived

Flight Plot

Page will automatically refresh every two minutes.


Map Options




Map Legend


Flown Route
Filed Route
Departure Airport
Arrival Airport
Navaid (VOR, NDB)
Fix

Horizontal Profiles

Position Reports

Time Latitude Longitude Heading Altitude Ground
Speed
01-Dec-19 17:29 34.569277 -114.359270 61 740ft 0kts
01-Dec-19 17:30 34.569277 -114.359270 61 740ft 0kts
01-Dec-19 17:31 34.569277 -114.359270 61 740ft 0kts
01-Dec-19 17:32 34.569277 -114.359270 61 740ft 0kts
01-Dec-19 17:33 34.569277 -114.359270 61 740ft 0kts
01-Dec-19 17:34 34.569277 -114.359270 61 740ft 0kts
01-Dec-19 17:35 34.569277 -114.359270 61 740ft 0kts
01-Dec-19 17:36 34.569277 -114.359270 61 740ft 0kts
01-Dec-19 17:37 34.569277 -114.359270 61 740ft 0kts
01-Dec-19 17:38 34.569277 -114.359270 61 740ft 0kts
01-Dec-19 17:39 34.569277 -114.359270 61 740ft 0kts
01-Dec-19 17:40 34.569277 -114.359270 61 740ft 0kts
01-Dec-19 17:41 34.569277 -114.359270 61 740ft 0kts
01-Dec-19 17:42 34.569277 -114.359270 61 740ft 0kts
01-Dec-19 17:43 34.569277 -114.359270 61 740ft 0kts
01-Dec-19 17:44 34.569277 -114.359270 61 740ft 0kts
01-Dec-19 17:45 34.569277 -114.359270 61 740ft 0kts
01-Dec-19 17:46 34.569277 -114.359270 61 740ft 0kts
01-Dec-19 17:47 34.569290 -114.359231 73 741ft 3kts
01-Dec-19 17:48 34.567285 -114.357528 152 742ft 22kts
01-Dec-19 17:49 34.566137 -114.356073 150 749ft 10kts
01-Dec-19 17:50 34.563518 -114.354195 133 760ft 23kts
01-Dec-19 17:52 34.561660 -114.352889 151 769ft 7kts
01-Dec-19 17:53 34.561333 -114.352414 70 773ft 0kts
01-Dec-19 17:54 34.561333 -114.352414 70 773ft 0kts
01-Dec-19 17:55 34.561333 -114.352414 70 773ft 0kts
01-Dec-19 17:56 34.561333 -114.352414 70 773ft 0kts
01-Dec-19 17:57 34.561333 -114.352414 70 773ft 0kts
01-Dec-19 17:58 34.562278 -114.352034 332 779ft 38kts
01-Dec-19 17:59 34.571453 -114.358024 333 1390ft 67kts
01-Dec-19 18:00 34.580139 -114.370344 302 1884ft 118kts
01-Dec-19 18:01 34.590600 -114.392125 301 2323ft 152kts
01-Dec-19 18:02 34.602718 -114.417279 301 2873ft 159kts
01-Dec-19 18:03 34.621303 -114.431391 335 3705ft 148kts
01-Dec-19 18:04 34.641592 -114.440121 340 4545ft 143kts
01-Dec-19 18:05 34.661444 -114.446884 343 5376ft 140kts
01-Dec-19 18:06 34.681530 -114.452304 346 6219ft 139kts
01-Dec-19 18:07 34.701178 -114.456746 346 7044ft 138kts
01-Dec-19 18:08 34.721000 -114.461077 346 7879ft 138kts
01-Dec-19 18:09 34.740333 -114.464090 345 8687ft 133kts
01-Dec-19 18:10 34.751262 -114.478675 275 9507ft 117kts
01-Dec-19 18:11 34.748044 -114.497898 245 10329ft 107kts
01-Dec-19 18:11 34.741525 -114.510937 237 10946ft 105kts
01-Dec-19 18:13 34.727714 -114.532734 233 11011ft 148kts
01-Dec-19 18:14 34.714775 -114.552250 232 11005ft 163kts
01-Dec-19 18:14 34.704011 -114.568486 232 11001ft 170kts
01-Dec-19 18:15 34.687946 -114.592757 232 10999ft 176kts
01-Dec-19 18:17 34.669213 -114.621071 232 10998ft 179kts
01-Dec-19 18:17 34.655772 -114.641379 232 10998ft 180kts
01-Dec-19 18:18 34.639913 -114.665326 232 11000ft 181kts
01-Dec-19 18:19 34.623690 -114.689806 232 10999ft 182kts
01-Dec-19 18:20 34.607346 -114.714451 232 10999ft 182kts
01-Dec-19 18:21 34.583906 -114.749765 232 11000ft 182kts
01-Dec-19 18:22 34.550387 -114.800203 232 11000ft 182kts
01-Dec-19 18:23 34.516887 -114.850540 232 10999ft 182kts
01-Dec-19 18:24 34.483258 -114.900999 232 10999ft 182kts
01-Dec-19 18:25 34.449449 -114.951654 232 10999ft 182kts
01-Dec-19 18:26 34.415475 -115.002484 232 10999ft 182kts
01-Dec-19 18:27 34.381816 -115.052771 232 10997ft 181kts
01-Dec-19 18:28 34.348175 -115.102957 232 10992ft 181kts
01-Dec-19 18:29 34.314738 -115.152771 232 10994ft 180kts
01-Dec-19 18:30 34.281058 -115.202876 232 10990ft 180kts
01-Dec-19 18:31 34.247216 -115.253149 232 10992ft 180kts
01-Dec-19 18:32 34.213630 -115.302976 232 10991ft 180kts
01-Dec-19 18:33 34.179934 -115.352894 232 10991ft 179kts
01-Dec-19 18:34 34.146239 -115.402740 232 10990ft 179kts
01-Dec-19 18:35 34.112630 -115.452389 232 10994ft 179kts
01-Dec-19 18:36 34.078971 -115.502045 232 10996ft 179kts
01-Dec-19 18:37 34.045388 -115.551519 232 10995ft 179kts
01-Dec-19 18:38 34.011889 -115.600801 232 10995ft 179kts
01-Dec-19 18:39 33.978851 -115.649338 232 10994ft 179kts
01-Dec-19 18:40 33.947260 -115.695682 231 11000ft 180kts
01-Dec-19 18:41 33.914606 -115.745166 242 10988ft 179kts
01-Dec-19 18:42 33.910530 -115.806226 266 11003ft 179kts
01-Dec-19 18:43 33.907469 -115.869680 265 10352ft 189kts
01-Dec-19 18:44 33.902628 -115.933976 256 9981ft 182kts
01-Dec-19 18:45 33.867645 -115.971002 211 10000ft 176kts
01-Dec-19 18:46 33.827075 -116.001011 215 9502ft 182kts
01-Dec-19 18:47 33.784267 -116.035067 216 8826ft 188kts
01-Dec-19 18:48 33.740409 -116.070399 216 8136ft 191kts
01-Dec-19 18:49 33.696950 -116.107847 220 7440ft 192kts
01-Dec-19 18:50 33.651669 -116.142745 216 6999ft 187kts
01-Dec-19 18:51 33.608224 -116.176249 215 6990ft 176kts
01-Dec-19 18:52 33.569005 -116.207723 229 6978ft 169kts
01-Dec-19 18:53 33.574400 -116.256092 310 7026ft 160kts
01-Dec-19 18:54 33.604423 -116.294201 323 6989ft 161kts
01-Dec-19 18:55 33.638595 -116.327477 319 7000ft 159kts
01-Dec-19 18:56 33.671706 -116.359913 329 6987ft 160kts
01-Dec-19 18:57 33.717271 -116.361482 0 7002ft 163kts
01-Dec-19 18:58 33.760836 -116.373710 321 5304ft 200kts
01-Dec-19 18:59 33.783682 -116.421188 298 4046ft 149kts
01-Dec-19 19:00 33.794571 -116.456029 264 1768ft 104kts
01-Dec-19 19:01 33.794740 -116.474043 305 1045ft 85kts
01-Dec-19 19:02 33.802868 -116.483561 324 853ft 83kts
01-Dec-19 19:03 33.811475 -116.491207 324 653ft 79kts
01-Dec-19 19:04 33.819642 -116.498668 322 463ft 79kts
01-Dec-19 19:05 33.826376 -116.504745 323 416ft 45kts
01-Dec-19 19:06 33.828048 -116.507199 187 421ft 9kts
01-Dec-19 19:07 33.827922 -116.507209 182 421ft 3kts
01-Dec-19 19:08 33.826309 -116.506829 193 417ft 13kts
01-Dec-19 19:09 33.824608 -116.506069 138 413ft 20kts
01-Dec-19 19:10 33.822635 -116.505478 212 409ft 15kts
01-Dec-19 19:11 33.821856 -116.506573 351 408ft 5kts
01-Dec-19 19:12 33.821886 -116.507076 305 409ft 3kts

Navigation Log

Ident Type
Flight plan parsing failed, navigation log unavailable